Time;durP1;ratioP1;P1;durP2;ratioP2;P2;SDS_P1;SDS_P2;PMS_P1;PMS_P2;Temp;Humidity;BMP_temperature;BMP_pressure;BME280_temperature;BME280_humidity;BME280_pressure;Samples;Min_cycle;Max_cycle;Signal;HPM_P1;HPM_P2
2024/01/16 00:00:52;;;;;;;46.50;10.57;;;4.30;93.60;;;;;;5108772;28;20107;-49
2024/01/16 00:03:18;;;;;;;36.83;9.77;;;4.20;93.60;;;;;;5108477;28;20024;-49
2024/01/16 00:05:43;;;;;;;39.20;9.10;;;4.20;93.60;;;;;;5108662;28;20036;-49
2024/01/16 00:08:09;;;;;;;36.63;9.43;;;4.20;93.60;;;;;;5090673;28;20052;-49
2024/01/16 00:10:35;;;;;;;27.48;9.65;;;4.20;93.60;;;;;;5090506;28;20040;-49
2024/01/16 00:13:00;;;;;;;32.17;9.05;;;4.20;93.60;;;;;;5108487;28;20430;-50
2024/01/16 00:15:26;;;;;;;31.63;9.88;;;4.10;93.60;;;;;;5108440;28;20036;-50
2024/01/16 00:17:52;;;;;;;28.17;8.55;;;4.20;93.60;;;;;;5108307;28;20016;-49
2024/01/16 00:20:17;;;;;;;27.25;8.75;;;4.10;93.60;;;;;;5090120;28;20055;-49
2024/01/16 00:22:43;;;;;;;28.05;9.43;;;4.10;93.60;;;;;;5090089;28;20016;-49
2024/01/16 00:25:09;;;;;;;27.27;8.85;;;4.10;93.60;;;;;;5107473;28;20055;-49
2024/01/16 00:27:35;;;;;;;44.35;10.13;;;4.10;93.60;;;;;;5090216;28;20026;-50
2024/01/16 00:30:00;;;;;;;26.08;9.30;;;4.30;93.70;;;;;;5108140;28;20052;-49
2024/01/16 00:32:26;;;;;;;35.33;10.25;;;4.00;93.70;;;;;;5107858;28;20149;-49
2024/01/16 00:34:51;;;;;;;36.22;8.43;;;4.00;93.70;;;;;;5107671;28;20044;-48
2024/01/16 00:37:17;;;;;;;29.33;8.90;;;4.00;93.70;;;;;;5089895;28;20039;-49
2024/01/16 00:39:42;;;;;;;37.45;9.05;;;4.10;93.80;;;;;;5107873;28;20470;-49
2024/01/16 00:42:08;;;;;;;27.92;8.00;;;4.00;93.80;;;;;;5107823;28;20031;-49
2024/01/16 00:44:34;;;;;;;27.30;8.40;;;4.00;93.70;;;;;;5107819;28;20028;-49
2024/01/16 00:47:01;;;;;;;36.78;8.80;;;4.00;93.70;;;;;;5107676;28;20054;-49
2024/01/16 00:49:27;;;;;;;28.50;7.72;;;4.00;93.70;;;;;;5107595;28;20464;-49
2024/01/16 00:51:53;;;;;;;27.73;8.55;;;4.00;93.70;;;;;;5089565;28;20051;-49
2024/01/16 00:54:19;;;;;;;25.63;8.43;;;4.00;93.70;;;;;;5089432;28;20464;-49
2024/01/16 00:56:44;;;;;;;25.27;7.93;;;4.00;93.70;;;;;;5107591;28;20033;-49
2024/01/16 00:59:10;;;;;;;32.42;8.18;;;3.90;93.60;;;;;;5107633;28;20052;-49
2024/01/16 01:01:37;;;;;;;36.70;9.45;;;3.90;93.70;;;;;;5089278;28;20029;-49
2024/01/16 01:04:03;;;;;;;27.65;8.02;;;3.90;94.00;;;;;;5089189;28;20028;-49
2024/01/16 01:06:28;;;;;;;28.77;8.77;;;3.90;93.70;;;;;;5089313;28;20035;-50
2024/01/16 01:08:54;;;;;;;21.23;7.65;;;3.90;93.70;;;;;;5107367;28;20028;-49
2024/01/16 01:11:20;;;;;;;19.75;7.90;;;3.90;93.70;;;;;;5107487;28;20035;-49
2024/01/16 01:13:46;;;;;;;30.23;8.27;;;3.90;93.60;;;;;;5089361;28;20035;-49
2024/01/16 01:16:11;;;;;;;24.38;7.88;;;3.90;93.70;;;;;;5107242;28;20499;-49
2024/01/16 01:18:37;;;;;;;20.77;7.43;;;3.90;93.70;;;;;;5107296;28;20020;-49
2024/01/16 01:21:03;;;;;;;22.95;7.45;;;4.10;93.70;;;;;;5107141;28;20060;-49
2024/01/16 01:23:28;;;;;;;25.67;8.23;;;3.80;93.60;;;;;;5107062;28;20031;-49
2024/01/16 01:25:54;;;;;;;36.72;8.93;;;4.10;93.60;;;;;;5107019;28;20043;-49
2024/01/16 01:28:19;;;;;;;33.67;8.30;;;3.80;93.60;;;;;;5106980;28;20049;-49
2024/01/16 01:30:45;;;;;;;21.83;7.10;;;3.80;93.60;;;;;;5088757;28;20051;-49
2024/01/16 01:33:11;;;;;;;22.95;7.20;;;3.70;93.60;;;;;;5088664;28;20032;-49
2024/01/16 01:35:37;;;;;;;25.38;7.40;;;3.80;93.70;;;;;;5106722;28;20400;-49
2024/01/16 01:38:03;;;;;;;20.48;7.03;;;3.70;93.70;;;;;;5107017;28;20017;-58
2024/01/16 01:40:28;;;;;;;16.45;6.47;;;3.70;93.70;;;;;;5106711;28;20028;-57
2024/01/16 01:42:54;;;;;;;20.55;7.15;;;3.70;93.70;;;;;;5106781;28;20023;-58
2024/01/16 01:45:20;;;;;;;25.23;8.13;;;3.70;93.70;;;;;;5106780;28;20100;-58
2024/01/16 01:47:45;;;;;;;21.85;7.55;;;3.70;93.70;;;;;;5106707;28;20475;-58
2024/01/16 01:50:11;;;;;;;22.30;6.95;;;3.70;93.70;;;;;;5088555;28;20092;-58
2024/01/16 01:52:40;;;;;;;26.55;8.52;;;3.70;93.70;;;;;;5088648;28;20028;-58
2024/01/16 01:55:13;;;;;;;21.98;7.57;;;3.70;93.70;;;;;;5088285;28;20028;-58
2024/01/16 01:57:39;;;;;;;25.33;7.18;;;3.60;93.70;;;;;;5106532;28;20028;-58
2024/01/16 02:00:06;;;;;;;22.85;7.80;;;3.60;93.70;;;;;;5088008;28;20035;-57
2024/01/16 02:02:32;;;;;;;19.77;7.35;;;3.60;93.70;;;;;;5106487;28;20024;-58
2024/01/16 02:04:57;;;;;;;20.02;7.65;;;3.70;93.70;;;;;;5088479;28;20036;-58
2024/01/16 02:07:23;;;;;;;18.55;6.90;;;3.60;93.70;;;;;;5106333;28;20031;-58
2024/01/16 02:09:49;;;;;;;17.98;6.97;;;3.60;93.70;;;;;;5088136;28;20036;-58
2024/01/16 02:12:14;;;;;;;21.40;6.57;;;3.60;93.70;;;;;;5106354;28;20154;-58
2024/01/16 02:14:40;;;;;;;17.15;7.35;;;3.60;93.70;;;;;;5088165;28;20027;-58
2024/01/16 02:17:06;;;;;;;17.50;6.47;;;3.60;93.70;;;;;;5106341;28;20029;-58
2024/01/16 02:19:31;;;;;;;19.00;6.90;;;3.60;93.80;;;;;;5106390;28;20031;-58
2024/01/16 02:21:59;;;;;;;17.48;6.70;;;3.60;93.80;;;;;;5088095;28;20020;-58
2024/01/16 02:24:25;;;;;;;16.20;6.82;;;3.50;93.70;;;;;;5106424;28;20020;-58
2024/01/16 02:26:50;;;;;;;18.10;6.55;;;3.70;93.80;;;;;;5088253;28;20590;-58
2024/01/16 02:29:16;;;;;;;13.30;6.40;;;3.70;93.70;;;;;;5088242;28;20050;-58
2024/01/16 02:31:42;;;;;;;15.73;6.78;;;3.50;93.70;;;;;;5106333;28;20032;-58
2024/01/16 02:34:08;;;;;;;17.42;6.43;;;3.50;93.70;;;;;;5106050;28;20024;-57
2024/01/16 02:36:34;;;;;;;17.67;7.10;;;3.50;93.70;;;;;;5088262;28;20060;-58
2024/01/16 02:39:00;;;;;;;17.85;6.03;;;3.50;93.70;;;;;;5106406;28;20028;-58
2024/01/16 02:41:25;;;;;;;15.55;6.93;;;3.50;93.70;;;;;;5106242;28;20032;-58
2024/01/16 02:43:51;;;;;;;20.63;6.95;;;3.50;93.70;;;;;;5105783;28;20028;-58
2024/01/16 02:46:17;;;;;;;15.73;6.65;;;3.50;93.70;;;;;;5106061;28;20040;-58
2024/01/16 02:48:42;;;;;;;14.82;6.53;;;3.40;93.70;;;;;;5108107;28;20087;-58
2024/01/16 02:51:08;;;;;;;15.20;6.15;;;3.40;93.80;;;;;;5109948;28;20032;-58
2024/01/16 02:53:34;;;;;;;13.43;6.45;;;3.70;93.80;;;;;;5110297;28;20155;-58
2024/01/16 02:55:59;;;;;;;17.85;6.07;;;3.50;93.80;;;;;;5110137;28;20125;-57
2024/01/16 02:58:28;;;;;;;15.13;6.20;;;3.50;93.80;;;;;;5109885;28;20096;-58
2024/01/16 03:00:54;;;;;;;16.38;6.18;;;3.40;93.80;;;;;;5109956;28;20028;-57
2024/01/16 03:03:20;;;;;;;16.33;6.40;;;3.40;93.70;;;;;;5110137;28;20046;-57
2024/01/16 03:05:46;;;;;;;13.80;5.82;;;3.40;93.80;;;;;;5109888;28;20032;-58
2024/01/16 03:08:12;;;;;;;14.07;6.25;;;3.40;93.70;;;;;;5091542;28;20028;-58
2024/01/16 03:10:37;;;;;;;10.20;5.30;;;3.40;93.80;;;;;;5108506;28;20043;-56
2024/01/16 03:13:03;;;;;;;13.38;5.68;;;3.40;93.80;;;;;;5109726;28;20027;-57
2024/01/16 03:15:30;;;;;;;11.10;5.38;;;3.40;93.80;;;;;;5125173;28;20099;-58
2024/01/16 03:18:00;;;;;;;19.35;6.35;;;3.40;93.80;;;;;;5109285;28;20027;-58
2024/01/16 03:20:25;;;;;;;17.08;6.32;;;3.40;93.70;;;;;;5109639;28;20053;-58
2024/01/16 03:22:51;;;;;;;18.30;6.55;;;3.40;93.80;;;;;;5109448;28;20061;-58
2024/01/16 03:25:17;;;;;;;12.20;5.32;;;3.30;93.70;;;;;;5125134;28;20107;-57
2024/01/16 03:27:43;;;;;;;14.10;5.53;;;3.30;93.70;;;;;;5109445;28;20028;-58
2024/01/16 03:30:09;;;;;;;13.02;6.50;;;3.30;93.70;;;;;;5124882;28;20054;-58
2024/01/16 03:32:38;;;;;;;12.85;5.45;;;3.30;93.70;;;;;;5109137;28;20028;-57
2024/01/16 03:35:04;;;;;;;14.90;5.63;;;3.40;93.70;;;;;;5109024;28;20036;-57
2024/01/16 03:37:30;;;;;;;14.05;6.28;;;3.30;93.60;;;;;;5109196;28;20020;-58
2024/01/16 03:39:56;;;;;;;15.10;6.35;;;3.30;93.70;;;;;;5124775;28;20032;-58
2024/01/16 03:42:22;;;;;;;15.75;6.03;;;3.30;94.00;;;;;;5109468;28;20035;-58
2024/01/16 03:44:48;;;;;;;11.88;5.80;;;3.30;93.70;;;;;;5109008;28;20039;-58
2024/01/16 03:47:13;;;;;;;14.02;6.18;;;3.30;93.70;;;;;;5124816;28;20044;-58
2024/01/16 03:49:39;;;;;;;16.25;5.82;;;3.30;93.70;;;;;;5109031;28;20048;-58
2024/01/16 03:52:05;;;;;;;12.23;5.22;;;3.30;93.70;;;;;;5108941;28;20028;-58
2024/01/16 03:54:30;;;;;;;13.52;4.95;;;3.30;93.70;;;;;;5090454;28;20032;-58
2024/01/16 03:56:56;;;;;;;11.23;6.00;;;3.30;93.70;;;;;;5090665;28;20020;-58
2024/01/16 03:59:22;;;;;;;12.60;6.07;;;3.30;93.70;;;;;;5107850;28;20042;-58
2024/01/16 04:01:48;;;;;;;13.68;5.40;;;3.30;93.70;;;;;;5124411;28;20025;-58
2024/01/16 04:04:14;;;;;;;14.60;5.88;;;3.20;93.60;;;;;;5124365;28;20016;-58
2024/01/16 04:06:40;;;;;;;11.32;5.20;;;3.20;93.70;;;;;;5108662;28;20032;-58
2024/01/16 04:09:05;;;;;;;14.85;6.15;;;3.20;93.70;;;;;;5108720;28;20035;-58
2024/01/16 04:11:31;;;;;;;18.05;5.38;;;3.30;93.70;;;;;;5124343;28;20040;-59
2024/01/16 04:13:57;;;;;;;12.35;5.70;;;3.30;93.70;;;;;;5108589;28;20050;-58
2024/01/16 04:16:22;;;;;;;9.73;5.07;;;3.20;93.70;;;;;;5108446;28;20039;-58
2024/01/16 04:18:48;;;;;;;9.85;5.38;;;3.20;93.70;;;;;;5108486;28;20038;-58
2024/01/16 04:21:13;;;;;;;12.57;5.55;;;3.20;93.60;;;;;;5108224;28;20088;-58
2024/01/16 04:23:39;;;;;;;10.73;5.10;;;3.20;93.60;;;;;;5108366;28;20475;-58
2024/01/16 04:26:05;;;;;;;13.60;5.53;;;3.20;93.70;;;;;;5123816;28;20081;-58
2024/01/16 04:28:30;;;;;;;9.80;5.18;;;3.20;93.60;;;;;;5108110;28;20176;-58
2024/01/16 04:30:56;;;;;;;15.15;5.82;;;3.20;93.70;;;;;;5108057;28;20035;-58
2024/01/16 04:33:21;;;;;;;9.15;5.40;;;3.20;93.60;;;;;;5108271;28;20044;-58
2024/01/16 04:35:47;;;;;;;8.73;4.75;;;3.20;93.60;;;;;;5107785;28;20036;-58
2024/01/16 04:38:13;;;;;;;10.80;5.03;;;3.20;93.70;;;;;;5108000;28;20016;-58
2024/01/16 04:40:38;;;;;;;7.90;5.22;;;3.20;93.70;;;;;;5123667;28;20024;-58
2024/01/16 04:43:04;;;;;;;7.35;4.90;;;3.20;93.70;;;;;;5123550;28;20046;-58
2024/01/16 04:45:29;;;;;;;15.68;5.38;;;3.20;93.70;;;;;;5107878;28;20042;-58
2024/01/16 04:47:55;;;;;;;9.13;4.93;;;3.20;93.70;;;;;;5107810;28;20024;-58
2024/01/16 04:50:20;;;;;;;9.77;5.13;;;3.20;93.70;;;;;;5107922;28;20604;-57
2024/01/16 04:52:46;;;;;;;13.05;6.07;;;3.20;93.70;;;;;;5107669;28;20039;-58
2024/01/16 04:55:11;;;;;;;9.32;5.65;;;3.20;94.00;;;;;;5107519;28;20051;-58
2024/01/16 04:57:37;;;;;;;10.52;5.35;;;3.20;93.70;;;;;;5123574;28;20039;-58
2024/01/16 05:00:06;;;;;;;9.70;5.03;;;3.20;93.70;;;;;;5107416;28;20490;-58
2024/01/16 05:02:33;;;;;;;13.23;6.18;;;3.20;93.70;;;;;;5107281;28;20028;-58
2024/01/16 05:04:59;;;;;;;12.75;6.13;;;3.20;93.70;;;;;;5123111;28;20039;-58
2024/01/16 05:07:24;;;;;;;9.38;4.97;;;3.20;93.70;;;;;;5107366;28;20020;-58
2024/01/16 05:09:50;;;;;;;12.63;5.03;;;3.20;93.70;;;;;;5122965;28;20127;-58
2024/01/16 05:12:15;;;;;;;10.90;5.05;;;3.20;93.70;;;;;;5106948;28;20028;-58
2024/01/16 05:14:41;;;;;;;10.73;5.38;;;3.20;93.70;;;;;;5123012;28;20024;-58
2024/01/16 05:17:08;;;;;;;8.10;4.65;;;3.20;93.70;;;;;;5107221;28;20028;-58
2024/01/16 05:19:33;;;;;;;12.90;5.18;;;3.20;93.70;;;;;;5107178;28;20016;-58
2024/01/16 05:21:59;;;;;;;10.68;5.15;;;3.20;93.70;;;;;;5107200;28;20021;-58
2024/01/16 05:24:24;;;;;;;12.55;5.50;;;3.20;93.70;;;;;;5107082;28;20024;-57
2024/01/16 05:26:50;;;;;;;10.10;5.45;;;3.20;93.70;;;;;;5122906;28;20544;-58
2024/01/16 05:29:17;;;;;;;7.55;4.55;;;3.20;93.60;;;;;;5107069;28;20020;-58
2024/01/16 05:31:43;;;;;;;10.20;5.07;;;3.20;93.60;;;;;;5106986;28;20483;-58
2024/01/16 05:34:09;;;;;;;11.10;4.93;;;3.20;93.60;;;;;;5106775;28;20024;-58
2024/01/16 05:36:35;;;;;;;10.35;4.97;;;3.20;93.60;;;;;;5122476;28;20047;-58
2024/01/16 05:39:00;;;;;;;12.13;4.93;;;3.20;93.60;;;;;;5106958;28;20016;-57
2024/01/16 05:41:26;;;;;;;9.10;4.75;;;3.20;93.60;;;;;;5107360;28;20039;-58
2024/01/16 05:43:52;;;;;;;10.32;5.15;;;3.20;93.50;;;;;;5106774;28;20044;-57
2024/01/16 05:46:18;;;;;;;8.90;5.38;;;3.20;93.50;;;;;;5106946;28;20036;-58
2024/01/16 05:48:44;;;;;;;12.45;5.47;;;3.20;93.50;;;;;;5106676;28;20032;-58
2024/01/16 05:51:09;;;;;;;14.70;5.95;;;3.20;93.50;;;;;;5088487;28;20032;-58
2024/01/16 05:53:35;;;;;;;14.15;5.10;;;3.20;93.50;;;;;;5106688;28;20065;-57
2024/01/16 05:56:00;;;;;;;20.02;5.40;;;3.20;93.40;;;;;;5122382;28;20357;-58
2024/01/16 05:58:26;;;;;;;10.45;5.40;;;3.20;93.50;;;;;;5106655;28;20024;-57
2024/01/16 06:00:51;;;;;;;16.17;5.88;;;3.20;93.40;;;;;;5122494;28;20053;-57
2024/01/16 06:03:17;;;;;;;13.82;5.65;;;3.20;93.40;;;;;;5107034;28;20024;-57
2024/01/16 06:05:43;;;;;;;20.48;6.10;;;3.20;93.50;;;;;;5088383;28;20052;-57
2024/01/16 06:08:08;;;;;;;27.35;7.32;;;3.20;93.50;;;;;;5106162;28;20028;-57
2024/01/16 06:10:34;;;;;;;22.27;6.65;;;3.20;93.40;;;;;;5106454;28;20032;-58
2024/01/16 06:12:59;;;;;;;35.40;7.10;;;3.20;93.40;;;;;;5106334;28;20052;-58
2024/01/16 06:15:25;;;;;;;27.85;7.82;;;3.20;93.30;;;;;;5106211;28;20043;-57
2024/01/16 06:17:50;;;;;;;35.50;7.25;;;3.20;93.40;;;;;;5105947;28;20395;-57
2024/01/16 06:20:16;;;;;;;44.22;10.02;;;3.20;93.40;;;;;;5107491;28;20029;-58
2024/01/16 06:22:41;;;;;;;33.00;9.70;;;3.30;93.40;;;;;;5107139;28;20051;-58
2024/01/16 06:25:07;;;;;;;32.13;8.77;;;3.20;93.40;;;;;;5111010;28;20028;-58
2024/01/16 06:27:33;;;;;;;26.15;8.02;;;3.30;93.30;;;;;;5110719;28;20024;-61
2024/01/16 06:29:58;;;;;;;31.40;7.93;;;3.30;93.30;;;;;;5110539;28;20519;-58
2024/01/16 06:32:24;;;;;;;36.05;8.25;;;3.20;93.40;;;;;;5126494;27;20016;-58
2024/01/16 06:34:50;;;;;;;40.58;8.60;;;3.30;93.50;;;;;;5108351;28;20044;-58
2024/01/16 06:37:15;;;;;;;58.00;11.10;;;3.30;93.60;;;;;;5108351;28;20072;-58
2024/01/16 06:39:41;;;;;;;77.07;11.73;;;3.30;93.80;;;;;;5108646;28;20024;-58
2024/01/16 06:42:07;;;;;;;35.53;9.60;;;3.30;93.80;;;;;;5110201;28;20072;-58
2024/01/16 06:44:32;;;;;;;32.45;9.50;;;3.40;94.00;;;;;;5110094;28;20039;-57
2024/01/16 06:46:58;;;;;;;46.45;9.43;;;3.30;93.70;;;;;;5109227;28;20024;-58
2024/01/16 06:49:23;;;;;;;36.63;9.88;;;3.30;93.60;;;;;;5091267;28;20085;-57
2024/01/16 06:51:49;;;;;;;46.00;11.75;;;3.30;93.80;;;;;;5109789;28;20028;-58
2024/01/16 06:54:14;;;;;;;37.30;10.13;;;3.30;93.80;;;;;;5106774;28;20024;-57
2024/01/16 06:56:40;;;;;;;37.97;9.65;;;3.20;93.80;;;;;;5114818;28;20047;-58
2024/01/16 06:59:05;;;;;;;54.75;10.25;;;3.20;93.80;;;;;;5113214;28;20016;-57
2024/01/16 07:01:31;;;;;;;54.88;11.15;;;3.30;93.90;;;;;;5109313;28;20040;-58
2024/01/16 07:03:57;;;;;;;44.63;10.95;;;3.20;93.80;;;;;;5113841;28;20041;-58
2024/01/16 07:06:22;;;;;;;38.78;10.18;;;3.30;93.80;;;;;;5118729;28;20359;-58
2024/01/16 07:08:48;;;;;;;33.58;9.75;;;3.20;93.70;;;;;;5128647;28;20023;-58
2024/01/16 07:11:13;;;;;;;46.42;10.05;;;3.20;93.70;;;;;;5108869;28;20038;-58
2024/01/16 07:13:43;;;;;;;34.35;10.07;;;3.20;93.90;;;;;;5116485;28;20024;-58
2024/01/16 07:16:12;;;;;;;41.08;9.90;;;3.20;93.80;;;;;;5123360;28;20028;-58
2024/01/16 07:18:38;;;;;;;34.55;8.68;;;3.20;93.70;;;;;;5116987;28;20020;-58
2024/01/16 07:21:04;;;;;;;32.00;9.18;;;3.20;94.00;;;;;;5124011;28;20040;-58
2024/01/16 07:23:30;;;;;;;33.78;10.40;;;3.30;93.70;;;;;;5110712;28;20528;-58
2024/01/16 07:25:55;;;;;;;36.95;9.60;;;3.30;93.70;;;;;;5116831;28;20035;-58
2024/01/16 07:28:22;;;;;;;45.15;10.20;;;3.30;93.60;;;;;;5119907;28;20088;-58
2024/01/16 07:30:47;;;;;;;37.85;8.80;;;3.30;93.60;;;;;;5111537;28;20049;-58
2024/01/16 07:33:13;;;;;;;34.10;8.63;;;3.30;93.60;;;;;;5099979;28;20083;-58
2024/01/16 07:35:41;;;;;;;41.50;10.13;;;3.20;93.60;;;;;;5109300;28;20024;-57
2024/01/16 07:38:06;;;;;;;35.25;8.93;;;3.30;93.60;;;;;;5116440;28;20111;-58
2024/01/16 07:40:32;;;;;;;25.85;8.43;;;3.20;93.60;;;;;;5124831;28;20024;-58
2024/01/16 07:42:57;;;;;;;31.42;7.97;;;3.20;93.60;;;;;;5113744;28;20028;-58
2024/01/16 07:45:23;;;;;;;26.92;7.93;;;2.90;93.50;;;;;;5116986;28;20379;-58
2024/01/16 07:47:49;;;;;;;20.90;9.20;;;3.20;93.50;;;;;;5117891;28;20032;-58
2024/01/16 07:50:15;;;;;;;20.02;7.70;;;3.20;93.40;;;;;;5115440;28;20459;-58
2024/01/16 07:52:40;;;;;;;29.67;9.25;;;3.30;93.40;;;;;;5110166;28;20027;-58
2024/01/16 07:55:06;;;;;;;29.27;9.10;;;3.20;93.30;;;;;;5102412;28;20097;-58
2024/01/16 07:57:32;;;;;;;21.38;7.80;;;3.30;93.30;;;;;;5113340;28;20055;-58
2024/01/16 07:59:57;;;;;;;29.27;8.18;;;3.20;93.20;;;;;;5110268;28;20028;-58
2024/01/16 08:02:27;;;;;;;24.73;8.07;;;3.20;93.20;;;;;;5103037;28;20294;-58
2024/01/16 08:04:53;;;;;;;31.27;8.73;;;3.20;93.10;;;;;;5110189;28;20040;-58
2024/01/16 08:07:18;;;;;;;26.30;7.55;;;3.20;93.10;;;;;;5108798;28;20042;-58
2024/01/16 08:09:44;;;;;;;23.67;7.40;;;3.20;93.10;;;;;;5121413;28;20479;-58
2024/01/16 08:12:10;;;;;;;25.17;8.02;;;3.20;93.10;;;;;;5108645;28;20047;-58
2024/01/16 08:14:35;;;;;;;26.40;8.40;;;3.20;93.10;;;;;;5106561;28;20101;-58
2024/01/16 08:17:01;;;;;;;21.40;6.82;;;3.20;93.10;;;;;;5108045;28;20051;-58
2024/01/16 08:19:27;;;;;;;25.23;6.88;;;3.10;93.10;;;;;;5102414;28;20024;-58
2024/01/16 08:21:52;;;;;;;19.95;6.90;;;3.10;93.10;;;;;;5100929;28;20468;-57
2024/01/16 08:24:18;;;;;;;26.13;6.85;;;3.20;93.10;;;;;;5093751;28;20124;-58
2024/01/16 08:26:43;;;;;;;20.33;7.45;;;3.20;93.10;;;;;;5118415;28;20028;-58
2024/01/16 08:29:09;;;;;;;17.42;7.63;;;3.10;93.10;;;;;;5115192;28;20028;-60
2024/01/16 08:31:34;;;;;;;20.60;7.28;;;3.20;93.10;;;;;;5099736;28;20115;-58
2024/01/16 08:34:00;;;;;;;28.92;8.55;;;3.20;93.10;;;;;;5099101;28;20020;-58
2024/01/16 08:36:25;;;;;;;37.38;8.20;;;3.10;93.10;;;;;;5111451;27;20043;-58
2024/01/16 08:38:51;;;;;;;27.77;8.63;;;3.20;93.10;;;;;;5100094;28;20027;-58
2024/01/16 08:41:16;;;;;;;30.20;9.98;;;3.20;93.10;;;;;;5111519;27;20031;-58
2024/01/16 08:43:42;;;;;;;34.40;8.77;;;3.20;93.10;;;;;;5106701;28;20535;-58
2024/01/16 08:46:08;;;;;;;45.45;9.05;;;3.20;93.00;;;;;;5101679;28;20028;-58
2024/01/16 08:48:34;;;;;;;81.18;12.02;;;3.20;93.00;;;;;;5094410;28;20025;-58
2024/01/16 08:50:59;;;;;;;41.65;9.45;;;3.20;93.10;;;;;;5102097;28;20047;-58
2024/01/16 08:53:25;;;;;;;46.42;10.50;;;3.20;93.10;;;;;;5100698;28;20031;-57
2024/01/16 08:55:51;;;;;;;34.10;10.30;;;3.20;93.10;;;;;;5093489;28;20035;-58
2024/01/16 08:58:16;;;;;;;39.38;8.88;;;3.20;93.10;;;;;;5091522;28;20066;-58
2024/01/16 09:00:42;;;;;;;39.28;9.85;;;3.20;93.10;;;;;;5105267;28;20013;-58
2024/01/16 09:03:08;;;;;;;50.17;9.10;;;3.20;93.10;;;;;;5118066;28;20020;-58
2024/01/16 09:05:38;;;;;;;45.30;9.88;;;3.20;93.10;;;;;;5110318;28;20115;-57
2024/01/16 09:08:04;;;;;;;46.13;9.20;;;3.20;93.00;;;;;;5108623;28;20105;-58
2024/01/16 09:10:30;;;;;;;51.05;10.57;;;3.20;93.00;;;;;;5103609;28;20032;-58
2024/01/16 09:12:55;;;;;;;37.00;9.75;;;3.20;93.00;;;;;;5110869;28;20023;-58
2024/01/16 09:15:21;;;;;;;33.00;8.73;;;3.20;93.00;;;;;;5111203;28;20032;-58
2024/01/16 09:17:46;;;;;;;33.95;9.07;;;3.20;93.00;;;;;;5102929;28;20472;-58
2024/01/16 09:20:12;;;;;;;32.28;9.50;;;3.20;93.00;;;;;;5100901;28;20107;-58
2024/01/16 09:22:37;;;;;;;68.57;11.45;;;3.20;93.00;;;;;;5112966;27;20035;-57
2024/01/16 09:25:03;;;;;;;37.20;9.13;;;3.20;93.30;;;;;;5099413;28;20035;-58
2024/01/16 09:27:29;;;;;;;60.80;9.85;;;3.20;93.10;;;;;;5104992;28;20429;-57
2024/01/16 09:29:55;;;;;;;39.63;9.45;;;3.20;93.10;;;;;;5100766;28;20034;-57
2024/01/16 09:32:20;;;;;;;42.55;11.55;;;3.20;93.10;;;;;;5103134;28;20020;-58
2024/01/16 09:34:46;;;;;;;43.10;10.07;;;3.20;93.00;;;;;;5100013;28;20040;-57
2024/01/16 09:37:14;;;;;;;52.85;11.93;;;3.20;93.00;;;;;;5102641;28;20087;-58
2024/01/16 09:39:41;;;;;;;40.20;8.30;;;3.30;93.00;;;;;;5096910;28;20084;-58
2024/01/16 09:42:07;;;;;;;43.33;10.82;;;3.30;92.90;;;;;;5080263;28;20049;-58
2024/01/16 09:44:34;;;;;;;38.13;10.13;;;3.30;92.90;;;;;;5100637;28;20376;-57
2024/01/16 09:46:59;;;;;;;48.10;10.23;;;3.30;92.90;;;;;;5104720;27;20023;-58
2024/01/16 09:49:25;;;;;;;32.33;8.38;;;3.30;93.00;;;;;;5099060;28;20127;-58
2024/01/16 09:51:50;;;;;;;31.77;9.43;;;3.30;93.00;;;;;;5085582;28;20035;-58
2024/01/16 09:54:16;;;;;;;51.42;10.02;;;3.30;93.00;;;;;;5110700;28;20036;-58
2024/01/16 09:56:43;;;;;;;32.60;8.50;;;3.30;93.00;;;;;;5085164;28;20028;-58
2024/01/16 09:59:09;;;;;;;75.10;13.48;;;3.30;93.00;;;;;;5098938;28;20083;-58
2024/01/16 10:01:34;;;;;;;53.53;10.82;;;3.30;93.00;;;;;;5098115;28;20047;-58
2024/01/16 10:04:00;;;;;;;48.42;10.75;;;3.30;93.30;;;;;;5098503;28;20091;-58
2024/01/16 10:06:27;;;;;;;38.97;10.10;;;3.30;93.10;;;;;;5105004;28;20412;-58
2024/01/16 10:08:53;;;;;;;47.55;9.50;;;3.30;93.00;;;;;;5093489;28;20036;-58
2024/01/16 10:11:18;;;;;;;37.47;9.63;;;3.30;93.00;;;;;;5102801;28;20117;-58
2024/01/16 10:13:44;;;;;;;49.30;10.25;;;3.30;92.90;;;;;;5102099;28;20445;-58
2024/01/16 10:16:10;;;;;;;38.90;9.35;;;3.30;92.90;;;;;;5094083;28;20028;-58
2024/01/16 10:18:37;;;;;;;36.50;9.23;;;3.40;92.80;;;;;;5075772;28;20086;-58
2024/01/16 10:21:03;;;;;;;28.90;8.85;;;3.40;92.70;;;;;;5102744;28;20041;-58
2024/01/16 10:23:30;;;;;;;27.92;8.50;;;3.40;92.70;;;;;;5082824;28;20031;-58
2024/01/16 10:26:11;;;;;;;25.65;10.10;;;3.40;92.70;;;;;;5100674;28;20039;-58
2024/01/16 10:28:39;;;;;;;38.22;9.43;;;3.40;92.60;;;;;;5095086;28;20098;-58
2024/01/16 10:31:05;;;;;;;41.95;8.52;;;3.40;92.60;;;;;;5098709;28;20056;-58
2024/01/16 10:33:31;;;;;;;34.03;7.90;;;3.40;92.50;;;;;;5100840;28;20032;-58
2024/01/16 10:36:12;;;;;;;35.85;8.52;;;3.50;92.50;;;;;;5093933;28;20043;-58
2024/01/16 10:38:39;;;;;;;34.65;9.15;;;3.50;92.50;;;;;;5106832;28;20074;-58
2024/01/16 10:41:14;;;;;;;32.95;8.93;;;3.50;92.40;;;;;;5102941;28;20114;-58
2024/01/16 10:43:40;;;;;;;32.55;9.50;;;3.60;92.40;;;;;;5094654;28;20053;-57
2024/01/16 10:46:12;;;;;;;43.83;9.75;;;3.60;92.50;;;;;;5092546;28;20119;-58
2024/01/16 10:48:39;;;;;;;42.95;10.05;;;3.60;92.50;;;;;;5105452;28;20515;-58
2024/01/16 10:51:06;;;;;;;30.85;9.10;;;3.60;92.50;;;;;;5102906;28;20077;-58
2024/01/16 10:53:33;;;;;;;30.55;9.57;;;3.60;92.60;;;;;;5090030;28;20268;-58
2024/01/16 10:56:00;;;;;;;40.72;9.93;;;3.60;92.50;;;;;;5105185;28;20032;-58
2024/01/16 10:58:25;;;;;;;37.25;9.70;;;3.70;92.60;;;;;;5097490;28;20032;-58
2024/01/16 11:00:54;;;;;;;61.72;10.90;;;3.70;92.50;;;;;;5088698;28;20043;-58
2024/01/16 11:03:30;;;;;;;64.50;11.57;;;3.70;92.50;;;;;;5095408;28;20111;-58
2024/01/16 11:05:57;;;;;;;41.72;10.50;;;3.80;92.50;;;;;;5095359;28;20031;-58
2024/01/16 11:08:27;;;;;;;39.92;10.35;;;3.80;92.70;;;;;;5100927;28;20045;-58
2024/01/16 11:10:53;;;;;;;166.85;20.40;;;3.80;92.70;;;;;;5091697;28;20035;-57
2024/01/16 11:13:18;;;;;;;122.20;17.13;;;3.80;92.50;;;;;;5077555;28;20097;-57
2024/01/16 11:15:44;;;;;;;67.03;12.85;;;3.80;92.50;;;;;;5095378;28;20024;-58
2024/01/16 11:18:09;;;;;;;73.57;12.05;;;3.80;92.60;;;;;;5095538;28;20118;-57
2024/01/16 11:20:35;;;;;;;64.47;11.95;;;3.90;92.70;;;;;;5125372;27;20032;-60
2024/01/16 11:23:01;;;;;;;76.35;13.43;;;3.90;92.80;;;;;;5121649;27;20057;-59
2024/01/16 11:25:33;;;;;;;50.22;10.52;;;3.90;92.90;;;;;;5109992;27;20024;-60
2024/01/16 11:28:11;;;;;;;60.25;12.32;;;3.90;92.80;;;;;;5108447;28;20100;-59
2024/01/16 11:30:37;;;;;;;59.38;10.93;;;3.90;93.00;;;;;;5096827;28;20052;-57
2024/01/16 11:33:04;;;;;;;84.43;14.93;;;3.90;92.70;;;;;;5121971;27;20432;-58
2024/01/16 11:35:37;;;;;;;62.33;12.70;;;4.00;92.80;;;;;;5085636;28;20028;-58
2024/01/16 11:38:18;;;;;;;106.47;15.73;;;3.90;92.80;;;;;;5080510;28;20028;-57
2024/01/16 11:40:45;;;;;;;78.97;13.80;;;3.90;92.70;;;;;;5096078;28;20023;-57
2024/01/16 11:43:32;;;;;;;79.18;12.40;;;3.90;92.80;;;;;;5091330;28;20035;-58
2024/01/16 11:45:58;;;;;;;55.58;12.10;;;4.00;92.70;;;;;;5095267;28;20036;-58
2024/01/16 11:48:24;;;;;;;46.22;11.35;;;4.00;92.70;;;;;;5099520;28;20032;-57
2024/01/16 11:50:50;;;;;;;56.63;11.70;;;4.00;92.70;;;;;;5096564;28;20438;-58
2024/01/16 11:53:33;;;;;;;63.55;12.63;;;4.00;92.70;;;;;;5100756;28;20528;-60
2024/01/16 11:56:27;;;;;;;50.20;11.77;;;4.00;92.70;;;;;;5098325;28;20102;-58
2024/01/16 11:59:25;;;;;;;54.28;11.40;;;4.00;92.60;;;;;;5096973;28;20036;-57
2024/01/16 12:01:52;;;;;;;43.17;10.48;;;4.10;92.60;;;;;;5102434;28;20024;-57
2024/01/16 12:04:20;;;;;;;50.55;11.73;;;4.10;92.50;;;;;;5115607;27;20118;-57
2024/01/16 12:06:59;;;;;;;50.58;12.68;;;4.00;92.40;;;;;;5075408;28;20029;-60
2024/01/16 12:09:28;;;;;;;53.65;11.00;;;4.10;92.40;;;;;;5123370;27;20381;-59
2024/01/16 12:11:58;;;;;;;234.95;24.88;;;4.10;92.40;;;;;;5084972;28;20110;-59
2024/01/16 12:14:24;;;;;;;84.78;14.02;;;4.10;92.30;;;;;;5100279;28;20028;-59
2024/01/16 12:16:49;;;;;;;56.35;13.70;;;4.10;92.30;;;;;;5096110;28;20036;-59
2024/01/16 12:19:15;;;;;;;54.45;11.40;;;4.10;92.20;;;;;;5097939;28;20024;-57
2024/01/16 12:21:41;;;;;;;38.22;11.43;;;4.10;92.30;;;;;;5116252;28;20043;-57
2024/01/16 12:24:07;;;;;;;52.35;11.50;;;4.10;92.20;;;;;;5110630;27;20545;-57
2024/01/16 12:26:32;;;;;;;51.22;11.55;;;4.10;92.20;;;;;;5100739;28;20031;-58
2024/01/16 12:28:58;;;;;;;56.20;12.45;;;4.20;92.20;;;;;;5098837;28;20031;-59
2024/01/16 12:31:24;;;;;;;57.80;11.63;;;4.20;92.20;;;;;;5081885;28;20515;-58
2024/01/16 12:33:51;;;;;;;38.33;10.90;;;4.20;92.20;;;;;;5094251;28;20047;-58
2024/01/16 12:36:17;;;;;;;61.50;10.00;;;4.20;92.10;;;;;;5093167;28;20089;-58
2024/01/16 12:38:42;;;;;;;53.60;11.25;;;4.20;92.20;;;;;;5107973;27;20029;-59
2024/01/16 12:41:09;;;;;;;57.40;11.65;;;4.20;92.20;;;;;;5102637;28;20021;-58